Time;durP1;ratioP1;P1;durP2;ratioP2;P2;SDS_P1;SDS_P2;PMS_P1;PMS_P2;Temp;Humidity;BMP_temperature;BMP_pressure;BME280_temperature;BME280_humidity;BME280_pressure;Samples;Min_cycle;Max_cycle;Signal;HPM_P1;HPM_P2
2023/05/24 00:01:36;;;;;;;9.73;1.15;;;7.10;99.90;;;;;;4968299;28;20037;-88
2023/05/24 00:04:02;;;;;;;14.85;1.25;;;7.10;99.90;;;;;;4961759;28;20055;-88
2023/05/24 00:06:28;;;;;;;9.73;0.85;;;7.00;99.90;;;;;;4958126;28;20468;-88
2023/05/24 00:08:54;;;;;;;10.20;1.08;;;7.00;99.90;;;;;;4955464;28;20052;-88
2023/05/24 00:11:21;;;;;;;13.50;1.23;;;7.00;99.90;;;;;;4965206;28;20030;-88
2023/05/24 00:13:47;;;;;;;9.10;0.95;;;7.00;99.90;;;;;;4955309;28;20055;-88
2023/05/24 00:16:12;;;;;;;9.40;1.20;;;6.90;99.90;;;;;;4959544;28;20090;-88
2023/05/24 00:18:39;;;;;;;10.68;1.27;;;6.90;99.90;;;;;;4934752;29;20425;-88
2023/05/24 00:21:07;;;;;;;7.45;1.23;;;6.90;99.90;;;;;;4946327;29;20028;-87
2023/05/24 00:23:32;;;;;;;10.35;1.52;;;6.80;99.90;;;;;;4956073;28;20480;-88
2023/05/24 00:25:58;;;;;;;11.75;1.75;;;6.80;99.90;;;;;;4954618;28;20035;-88
2023/05/24 00:28:24;;;;;;;12.95;1.55;;;6.80;99.90;;;;;;4953485;28;20034;-88
2023/05/24 00:30:50;;;;;;;11.55;1.60;;;6.80;99.90;;;;;;4952138;28;20027;-88
2023/05/24 00:33:15;;;;;;;14.45;1.88;;;6.80;99.90;;;;;;4948758;28;20026;-87
2023/05/24 00:35:41;;;;;;;13.48;1.85;;;6.80;99.90;;;;;;4956510;28;20077;-88
2023/05/24 00:38:06;;;;;;;15.30;2.35;;;6.70;99.90;;;;;;4974190;28;20030;-88
2023/05/24 00:40:32;;;;;;;10.10;2.10;;;6.70;99.90;;;;;;4992844;28;20039;-88
2023/05/24 00:42:57;;;;;;;11.27;1.85;;;6.60;99.90;;;;;;5006974;28;20032;-88
2023/05/24 00:45:23;;;;;;;10.35;1.70;;;6.60;99.90;;;;;;4976028;28;20487;-88
2023/05/24 00:47:48;;;;;;;15.02;2.15;;;6.60;99.90;;;;;;4987557;28;20042;-88
2023/05/24 00:50:15;;;;;;;12.40;2.67;;;6.50;99.90;;;;;;4976019;28;20070;-88
2023/05/24 00:52:42;;;;;;;13.55;2.13;;;6.50;99.90;;;;;;4991317;28;20113;-88
2023/05/24 00:55:08;;;;;;;13.90;3.22;;;6.50;99.90;;;;;;4979663;28;20027;-88
2023/05/24 00:57:35;;;;;;;12.52;1.80;;;6.40;99.90;;;;;;4970654;28;20027;-87
2023/05/24 01:00:02;;;;;;;12.27;2.10;;;6.40;99.90;;;;;;4975251;28;20026;-88
2023/05/24 01:02:28;;;;;;;13.20;2.30;;;6.40;99.90;;;;;;4980104;28;20061;-87
2023/05/24 01:04:55;;;;;;;17.27;2.33;;;6.40;99.90;;;;;;4973983;28;20069;-88
2023/05/24 01:07:44;;;;;;;14.23;2.67;;;6.30;99.90;;;;;;4968007;28;20046;-88
2023/05/24 01:10:56;;;;;;;16.48;2.38;;;6.30;99.90;;;;;;4967509;28;20022;-88
2023/05/24 01:13:46;;;;;;;12.20;2.25;;;6.30;99.90;;;;;;4895429;29;20036;-88
2023/05/24 01:16:35;;;;;;;13.15;2.42;;;6.30;99.90;;;;;;4986839;28;20042;-88
2023/05/24 01:19:15;;;;;;;10.55;2.30;;;6.20;99.90;;;;;;4974892;28;20022;-88
2023/05/24 01:22:08;;;;;;;11.77;2.20;;;6.20;99.90;;;;;;4974045;28;20030;-87
2023/05/24 01:25:02;;;;;;;12.77;2.70;;;6.20;99.90;;;;;;4992639;28;20389;-88
2023/05/24 01:27:29;;;;;;;10.10;2.50;;;6.20;99.90;;;;;;4994253;28;20503;-87
2023/05/24 01:29:56;;;;;;;11.35;2.53;;;6.20;99.90;;;;;;4973972;28;20035;-87
2023/05/24 01:32:22;;;;;;;9.68;2.63;;;6.20;99.90;;;;;;4967531;28;20030;-88
2023/05/24 01:34:47;;;;;;;15.80;2.45;;;6.20;99.90;;;;;;4959523;28;20047;-88
2023/05/24 01:37:13;;;;;;;10.77;2.58;;;6.20;99.90;;;;;;4962995;28;20454;-88
2023/05/24 01:39:39;;;;;;;15.23;3.35;;;6.20;99.90;;;;;;4961767;28;20082;-87
2023/05/24 01:42:15;;;;;;;10.85;2.85;;;6.10;99.90;;;;;;4961656;28;20078;-88
2023/05/24 01:44:54;;;;;;;10.77;2.40;;;6.20;99.90;;;;;;4961195;28;20023;-88
2023/05/24 01:47:26;;;;;;;11.15;2.83;;;6.10;99.90;;;;;;4954833;28;20510;-88
2023/05/24 01:49:55;;;;;;;14.63;3.08;;;6.10;99.90;;;;;;4974800;28;20507;-87
2023/05/24 01:52:26;;;;;;;8.35;2.35;;;6.10;99.90;;;;;;4969109;28;20027;-88
2023/05/24 01:54:52;;;;;;;15.00;3.15;;;6.10;99.90;;;;;;4956882;29;20118;-88
2023/05/24 01:57:22;;;;;;;8.65;2.90;;;6.10;99.90;;;;;;4946467;28;20047;-88
2023/05/24 01:59:49;;;;;;;13.25;3.92;;;6.00;99.90;;;;;;4959343;28;20482;-87
2023/05/24 02:02:14;;;;;;;10.95;3.05;;;6.00;99.90;;;;;;4971830;28;20023;-87
2023/05/24 02:04:40;;;;;;;15.85;3.55;;;6.00;99.90;;;;;;4957143;28;20023;-87
2023/05/24 02:07:06;;;;;;;10.27;3.13;;;5.90;99.90;;;;;;4971160;28;20035;-88
2023/05/24 02:09:32;;;;;;;14.30;3.20;;;5.90;99.90;;;;;;4940542;29;20034;-88
2023/05/24 02:11:57;;;;;;;10.25;2.75;;;5.90;99.90;;;;;;4945126;28;20034;-88
2023/05/24 02:14:23;;;;;;;12.13;3.15;;;6.00;99.90;;;;;;4949951;28;20377;-87
2023/05/24 02:16:49;;;;;;;15.52;3.20;;;5.90;99.90;;;;;;4944427;28;20038;-88
2023/05/24 02:19:16;;;;;;;9.50;2.83;;;6.00;99.90;;;;;;4952725;29;20082;-87
2023/05/24 02:21:42;;;;;;;14.80;3.17;;;5.90;99.90;;;;;;4955256;28;20064;-87
2023/05/24 02:24:10;;;;;;;22.42;5.53;;;5.90;99.90;;;;;;4952219;28;20452;-88
2023/05/24 02:26:36;;;;;;;15.77;3.75;;;5.90;99.90;;;;;;4960579;28;20026;-87
2023/05/24 02:29:02;;;;;;;11.00;2.80;;;5.90;99.90;;;;;;4971877;28;20019;-88
2023/05/24 02:31:28;;;;;;;10.02;2.92;;;5.80;99.90;;;;;;4948490;28;20413;-88
2023/05/24 02:33:55;;;;;;;17.20;3.72;;;5.80;99.90;;;;;;4974933;28;20045;-88
2023/05/24 02:36:22;;;;;;;12.63;3.20;;;5.80;99.90;;;;;;4959885;28;20050;-88
2023/05/24 02:38:51;;;;;;;11.45;3.00;;;5.80;99.90;;;;;;4955691;28;20114;-88
2023/05/24 02:41:17;;;;;;;12.38;3.10;;;5.80;99.90;;;;;;4956424;28;20167;-88
2023/05/24 02:43:44;;;;;;;7.53;2.20;;;5.80;99.90;;;;;;4969746;28;20480;-88
2023/05/24 02:46:09;;;;;;;8.75;2.22;;;5.80;99.90;;;;;;4956499;28;20479;-88
2023/05/24 02:48:35;;;;;;;7.45;2.80;;;5.80;99.90;;;;;;4975011;28;20023;-88
2023/05/24 02:51:02;;;;;;;11.32;2.92;;;5.80;99.90;;;;;;4954984;28;20023;-88
2023/05/24 02:53:28;;;;;;;12.00;3.08;;;5.80;99.90;;;;;;4940783;28;20061;-88
2023/05/24 02:55:53;;;;;;;13.20;3.55;;;5.70;99.90;;;;;;4954706;29;20039;-88
2023/05/24 02:58:19;;;;;;;17.67;3.35;;;5.70;99.90;;;;;;4955139;29;20019;-87
2023/05/24 03:00:45;;;;;;;11.48;2.70;;;5.70;99.90;;;;;;4966715;28;20121;-88
2023/05/24 03:03:11;;;;;;;13.80;2.92;;;5.70;99.90;;;;;;4960643;28;20015;-88
2023/05/24 03:05:36;;;;;;;11.15;3.08;;;5.70;99.90;;;;;;4974338;28;20126;-88
2023/05/24 03:08:03;;;;;;;9.90;2.85;;;5.70;99.90;;;;;;4956928;28;20087;-87
2023/05/24 03:10:28;;;;;;;17.55;3.60;;;5.70;99.90;;;;;;4948744;28;20031;-87
2023/05/24 03:12:54;;;;;;;13.85;3.33;;;5.80;99.90;;;;;;4936234;29;20030;-88
2023/05/24 03:15:20;;;;;;;12.90;3.08;;;5.70;99.90;;;;;;4943284;28;20058;-87
2023/05/24 03:17:45;;;;;;;10.43;2.50;;;5.70;99.90;;;;;;4936037;29;20031;-87
2023/05/24 03:20:11;;;;;;;14.27;3.55;;;5.70;99.90;;;;;;4943201;29;20479;-87
2023/05/24 03:22:37;;;;;;;15.15;2.67;;;5.70;99.90;;;;;;4954369;28;20039;-87
2023/05/24 03:25:03;;;;;;;12.65;3.45;;;5.70;99.90;;;;;;4947342;28;20045;-87
2023/05/24 03:27:28;;;;;;;16.10;4.03;;;5.70;99.90;;;;;;4936016;29;20035;-87
2023/05/24 03:29:54;;;;;;;18.30;2.97;;;5.70;99.90;;;;;;4944818;28;20050;-88
2023/05/24 03:32:20;;;;;;;12.25;2.85;;;5.70;99.90;;;;;;4941124;28;20120;-88
2023/05/24 03:34:45;;;;;;;16.88;2.95;;;5.70;99.90;;;;;;4987207;28;20038;-87
2023/05/24 03:37:11;;;;;;;16.50;3.92;;;5.70;99.90;;;;;;4994422;28;20038;-87
2023/05/24 03:39:36;;;;;;;16.15;2.95;;;5.70;99.90;;;;;;4977424;28;20039;-87
2023/05/24 03:42:02;;;;;;;12.52;3.42;;;5.70;99.90;;;;;;4982367;28;20018;-88
2023/05/24 03:44:27;;;;;;;13.20;3.47;;;5.70;99.90;;;;;;4977776;28;20027;-87
2023/05/24 03:46:53;;;;;;;11.85;3.92;;;5.80;99.90;;;;;;4977086;28;20069;-87
2023/05/24 03:49:18;;;;;;;12.50;3.70;;;5.80;99.90;;;;;;4968743;28;20022;-87
2023/05/24 03:51:44;;;;;;;13.63;2.92;;;5.80;99.90;;;;;;4976190;28;20040;-88
2023/05/24 03:54:09;;;;;;;15.10;3.97;;;5.80;99.90;;;;;;4974962;28;20041;-87
2023/05/24 03:56:36;;;;;;;17.13;3.13;;;5.90;99.90;;;;;;4997203;28;20060;-87
2023/05/24 03:59:02;;;;;;;15.73;3.95;;;5.80;99.90;;;;;;4995638;28;20022;-88
2023/05/24 04:01:30;;;;;;;12.73;3.25;;;5.90;99.90;;;;;;4983742;28;20025;-87
2023/05/24 04:03:56;;;;;;;14.07;3.70;;;5.90;99.90;;;;;;4992040;28;20080;-87
2023/05/24 04:06:27;;;;;;;21.13;3.95;;;5.90;99.90;;;;;;4976466;28;20038;-88
2023/05/24 04:08:57;;;;;;;16.83;3.70;;;5.90;99.90;;;;;;4993644;28;20030;-87
2023/05/24 04:11:23;;;;;;;9.82;3.17;;;5.90;99.90;;;;;;4978916;28;20097;-88
2023/05/24 04:13:51;;;;;;;15.13;3.33;;;5.90;99.90;;;;;;5004526;28;20062;-88
2023/05/24 04:16:17;;;;;;;11.95;3.80;;;6.00;99.90;;;;;;4989338;28;20038;-89
2023/05/24 04:18:44;;;;;;;11.85;3.42;;;5.90;99.90;;;;;;4996675;28;20367;-88
2023/05/24 04:21:10;;;;;;;11.07;3.38;;;6.00;99.90;;;;;;4978858;28;20031;-88
2023/05/24 04:23:35;;;;;;;15.48;4.85;;;6.00;99.90;;;;;;4979063;28;20121;-88
2023/05/24 04:26:01;;;;;;;14.00;3.10;;;6.10;99.90;;;;;;4968944;28;20113;-88
2023/05/24 04:28:26;;;;;;;11.90;3.13;;;6.10;99.90;;;;;;4961809;28;20039;-88
2023/05/24 04:30:52;;;;;;;19.48;4.10;;;6.10;99.90;;;;;;4968353;28;20037;-88
2023/05/24 04:33:18;;;;;;;14.70;4.30;;;6.20;99.90;;;;;;4975539;28;20031;-88
2023/05/24 04:35:44;;;;;;;13.38;3.75;;;6.30;99.90;;;;;;4977030;28;20038;-88
2023/05/24 04:38:11;;;;;;;24.20;4.38;;;6.30;99.90;;;;;;4993783;28;20077;-88
2023/05/24 04:40:37;;;;;;;20.67;4.03;;;6.40;99.90;;;;;;4974773;28;20117;-88
2023/05/24 04:43:03;;;;;;;20.48;4.95;;;6.50;99.90;;;;;;4967292;28;20057;-88
2023/05/24 04:45:29;;;;;;;18.90;4.65;;;6.50;99.90;;;;;;4972165;28;20053;-88
2023/05/24 04:47:56;;;;;;;22.00;4.80;;;6.60;99.90;;;;;;4976451;28;20027;-88
2023/05/24 04:50:21;;;;;;;17.00;4.50;;;6.80;99.90;;;;;;4970723;28;20061;-88
2023/05/24 04:52:47;;;;;;;19.92;4.90;;;6.80;99.90;;;;;;4976686;28;20026;-88
2023/05/24 04:55:12;;;;;;;20.83;4.90;;;6.90;99.90;;;;;;4976806;28;20023;-88
2023/05/24 04:57:38;;;;;;;23.75;5.32;;;7.00;99.90;;;;;;4975163;28;20030;-88
2023/05/24 05:00:06;;;;;;;16.13;5.10;;;7.10;99.90;;;;;;4976939;28;20030;-88
2023/05/24 05:02:31;;;;;;;23.50;6.40;;;7.20;99.90;;;;;;4976069;28;20018;-88
2023/05/24 05:04:57;;;;;;;18.70;5.28;;;7.40;99.90;;;;;;4960942;28;20525;-88
2023/05/24 05:07:22;;;;;;;15.82;4.88;;;7.50;99.90;;;;;;4956887;28;20033;-88
2023/05/24 05:09:48;;;;;;;22.73;5.20;;;7.70;99.90;;;;;;4957325;28;20165;-88
2023/05/24 05:12:14;;;;;;;14.90;4.68;;;8.00;99.90;;;;;;4961222;28;20523;-89
2023/05/24 05:14:39;;;;;;;23.20;4.75;;;8.30;99.90;;;;;;4969927;28;20054;-89
2023/05/24 05:17:05;;;;;;;16.02;3.75;;;8.70;99.90;;;;;;4966026;28;20462;-88
2023/05/24 05:19:30;;;;;;;19.70;3.80;;;9.10;99.90;;;;;;4972761;28;20114;-89
2023/05/24 05:21:56;;;;;;;12.77;3.20;;;9.60;99.90;;;;;;4965902;28;20031;-88
2023/05/24 05:24:21;;;;;;;20.45;3.58;;;10.10;99.90;;;;;;4959424;28;20027;-89
2023/05/24 05:26:47;;;;;;;25.58;4.30;;;10.50;99.90;;;;;;4959361;28;20030;-89
2023/05/24 05:29:12;;;;;;;16.83;3.30;;;10.90;99.90;;;;;;4974904;28;20022;-88
2023/05/24 05:31:38;;;;;;;12.40;2.70;;;11.30;99.90;;;;;;4964686;28;20114;-88
2023/05/24 05:34:08;;;;;;;20.35;3.63;;;11.60;99.90;;;;;;4963837;28;20035;-88
2023/05/24 05:36:39;;;;;;;13.88;2.80;;;11.80;99.90;;;;;;4972870;28;20042;-88
2023/05/24 05:39:10;;;;;;;16.75;3.60;;;12.00;99.90;;;;;;4975582;28;20026;-88
2023/05/24 05:41:38;;;;;;;21.95;4.53;;;12.10;99.90;;;;;;4970663;28;20057;-88
2023/05/24 05:44:04;;;;;;;11.63;3.10;;;12.10;99.90;;;;;;4975659;28;20030;-89
2023/05/24 05:46:30;;;;;;;19.20;3.60;;;12.10;99.90;;;;;;4975027;28;20030;-89
2023/05/24 05:48:55;;;;;;;13.60;3.58;;;12.20;99.90;;;;;;4972258;28;20113;-89
2023/05/24 05:51:21;;;;;;;22.35;3.10;;;12.10;99.90;;;;;;4961935;28;20042;-89
2023/05/24 05:53:46;;;;;;;19.17;3.97;;;12.10;99.90;;;;;;4972480;28;20042;-89
2023/05/24 05:56:12;;;;;;;18.85;4.07;;;12.10;99.90;;;;;;4975936;28;20035;-89
2023/05/24 05:58:37;;;;;;;14.18;2.95;;;12.00;99.90;;;;;;4979321;28;20022;-88
2023/05/24 06:01:14;;;;;;;19.65;3.80;;;12.00;99.90;;;;;;4975998;28;20041;-89
2023/05/24 06:03:40;;;;;;;23.17;3.42;;;12.00;99.90;;;;;;4970210;28;20034;-88
2023/05/24 06:06:05;;;;;;;22.20;3.67;;;12.00;99.90;;;;;;4994803;28;20034;-88
2023/05/24 06:08:33;;;;;;;23.90;3.60;;;12.10;99.90;;;;;;4957283;28;20098;-88
2023/05/24 06:11:17;;;;;;;26.10;3.33;;;12.10;99.90;;;;;;4986412;28;20030;-88
2023/05/24 06:13:42;;;;;;;23.08;3.28;;;12.00;99.90;;;;;;4978254;28;20088;-89
2023/05/24 06:16:08;;;;;;;30.40;3.80;;;12.00;99.90;;;;;;4984523;28;20046;-87
2023/05/24 06:18:35;;;;;;;21.77;3.42;;;12.00;99.90;;;;;;4991813;28;20022;-86
2023/05/24 06:21:01;;;;;;;26.95;4.63;;;12.10;99.90;;;;;;4981882;28;20037;-87
2023/05/24 06:23:49;;;;;;;16.45;3.63;;;12.20;99.90;;;;;;4999520;28;20465;-88
2023/05/24 06:26:15;;;;;;;27.05;4.22;;;12.20;99.90;;;;;;5003264;28;20038;-86
2023/05/24 06:28:40;;;;;;;26.90;4.55;;;12.20;99.90;;;;;;4971327;28;20447;-87
2023/05/24 06:31:06;;;;;;;27.65;4.93;;;12.30;99.90;;;;;;4976531;28;20034;-88
2023/05/24 06:33:31;;;;;;;24.48;3.38;;;12.30;99.90;;;;;;4975079;28;20030;-88
2023/05/24 06:35:57;;;;;;;18.80;3.58;;;12.40;99.90;;;;;;4974336;28;20118;-88
2023/05/24 06:38:23;;;;;;;19.92;4.20;;;12.40;99.90;;;;;;4970306;28;20042;-88
2023/05/24 06:40:48;;;;;;;18.13;3.08;;;12.50;99.90;;;;;;4980415;28;20030;-88
2023/05/24 06:43:15;;;;;;;14.75;2.55;;;12.60;99.90;;;;;;4977212;28;20018;-88
2023/05/24 06:45:40;;;;;;;17.98;3.00;;;12.60;99.90;;;;;;4975456;28;20570;-87
2023/05/24 06:48:06;;;;;;;20.02;3.50;;;12.70;99.90;;;;;;4970421;28;20058;-88
2023/05/24 06:50:31;;;;;;;18.60;3.38;;;12.70;99.90;;;;;;4968983;28;20026;-88
2023/05/24 06:52:57;;;;;;;22.63;3.35;;;12.80;99.90;;;;;;4972322;28;20037;-89
2023/05/24 06:55:22;;;;;;;16.83;3.03;;;12.80;99.90;;;;;;4973490;28;20084;-88
2023/05/24 06:57:48;;;;;;;15.10;3.28;;;12.80;99.90;;;;;;4975510;28;20093;-88
2023/05/24 07:00:14;;;;;;;19.95;4.28;;;12.90;99.90;;;;;;4972995;28;20479;-88
2023/05/24 07:02:40;;;;;;;21.05;3.00;;;12.90;99.90;;;;;;4971701;28;20030;-89
2023/05/24 07:05:10;;;;;;;21.05;3.45;;;13.00;99.90;;;;;;4975934;28;20399;-88
2023/05/24 07:07:37;;;;;;;20.02;3.78;;;13.10;99.90;;;;;;4988363;28;20034;-85
2023/05/24 07:10:03;;;;;;;22.33;2.92;;;13.20;99.90;;;;;;4974539;28;20126;-87
2023/05/24 07:12:28;;;;;;;20.30;4.93;;;13.20;99.90;;;;;;4976830;28;20113;-88
2023/05/24 07:14:57;;;;;;;15.05;2.70;;;13.20;99.90;;;;;;4970273;28;20497;-88
2023/05/24 07:17:22;;;;;;;17.55;3.42;;;13.30;99.90;;;;;;4969945;28;20049;-88
2023/05/24 07:19:48;;;;;;;15.43;3.50;;;13.40;99.90;;;;;;4974324;28;20022;-88
2023/05/24 07:22:13;;;;;;;14.15;2.88;;;13.40;99.90;;;;;;4983744;28;20030;-87
2023/05/24 07:24:39;;;;;;;12.73;2.70;;;13.60;99.90;;;;;;4975763;28;20040;-88
2023/05/24 07:27:04;;;;;;;18.30;2.75;;;13.70;99.90;;;;;;4976728;28;20105;-87
2023/05/24 07:29:30;;;;;;;16.40;2.83;;;13.70;99.90;;;;;;4967046;28;20046;-88
2023/05/24 07:31:56;;;;;;;16.20;2.58;;;13.90;99.90;;;;;;4977359;28;20018;-88
2023/05/24 07:34:26;;;;;;;12.40;1.88;;;13.90;99.90;;;;;;4962732;28;20056;-88
2023/05/24 07:36:52;;;;;;;11.45;2.35;;;13.90;99.90;;;;;;4949790;28;20062;-88
2023/05/24 07:39:18;;;;;;;14.15;3.13;;;14.00;99.90;;;;;;4951363;28;20065;-88
2023/05/24 07:41:44;;;;;;;19.20;2.80;;;14.10;99.90;;;;;;4941380;28;20078;-94
2023/05/24 07:44:10;;;;;;;15.10;3.05;;;14.40;99.90;;;;;;4945305;29;20448;-89
2023/05/24 07:46:36;;;;;;;19.60;3.55;;;14.70;99.90;;;;;;4944259;28;20046;-89
2023/05/24 07:49:02;;;;;;;16.00;2.72;;;14.80;99.90;;;;;;4952069;28;20035;-89
2023/05/24 07:51:27;;;;;;;12.73;2.38;;;14.90;99.90;;;;;;4948129;28;20035;-89
2023/05/24 07:53:56;;;;;;;17.02;3.15;;;14.90;99.90;;;;;;4952483;28;20031;-89
2023/05/24 07:56:22;;;;;;;16.85;3.20;;;14.90;99.90;;;;;;4940216;28;20039;-89
2023/05/24 07:58:50;;;;;;;18.98;3.22;;;14.80;99.90;;;;;;4960504;28;20027;-93
2023/05/24 08:01:17;;;;;;;15.23;3.80;;;14.70;99.90;;;;;;4952851;28;20042;-89
2023/05/24 08:03:43;;;;;;;16.75;2.85;;;14.70;99.90;;;;;;4944126;28;20333;-87
2023/05/24 08:06:09;;;;;;;16.98;3.10;;;14.70;99.90;;;;;;4952967;28;20035;-89
2023/05/24 08:08:38;;;;;;;17.42;2.45;;;14.70;99.90;;;;;;4953220;28;20031;-89
2023/05/24 08:11:04;;;;;;;11.00;2.67;;;14.80;99.90;;;;;;4945116;28;20840;-89
2023/05/24 08:13:30;;;;;;;19.23;3.13;;;14.80;99.90;;;;;;4951625;28;20031;-89
2023/05/24 08:16:03;;;;;;;11.95;3.13;;;14.90;99.90;;;;;;4948267;28;20040;-89
2023/05/24 08:18:29;;;;;;;16.40;3.28;;;15.00;99.90;;;;;;4950664;29;20031;-90
2023/05/24 08:20:54;;;;;;;15.13;3.10;;;15.10;99.90;;;;;;4946745;28;20043;-89
2023/05/24 08:23:20;;;;;;;16.35;3.10;;;15.00;99.90;;;;;;4957863;28;20037;-89
2023/05/24 08:25:46;;;;;;;18.60;3.38;;;15.10;99.90;;;;;;4955778;28;20125;-90
2023/05/24 08:28:11;;;;;;;16.30;4.22;;;15.30;99.90;;;;;;4959297;28;20051;-89
2023/05/24 08:30:37;;;;;;;19.05;3.35;;;15.40;99.90;;;;;;4952493;28;20035;-89
2023/05/24 08:33:03;;;;;;;11.70;2.67;;;15.40;99.90;;;;;;4953401;28;20062;-89
2023/05/24 08:35:28;;;;;;;87.03;10.15;;;15.40;99.90;;;;;;4953085;28;20070;-89
2023/05/24 08:37:54;;;;;;;56.45;5.75;;;15.30;99.90;;;;;;4950157;28;20028;-89
2023/05/24 08:40:19;;;;;;;13.88;2.28;;;15.00;99.90;;;;;;4961323;28;20023;-89
2023/05/24 08:42:46;;;;;;;71.40;8.15;;;14.80;99.90;;;;;;4959466;28;20055;-89
2023/05/24 08:45:13;;;;;;;17.75;2.90;;;14.60;99.90;;;;;;4953939;28;20042;-88
2023/05/24 08:47:39;;;;;;;19.52;3.22;;;14.80;99.90;;;;;;4952726;28;20045;-89
2023/05/24 08:50:07;;;;;;;12.45;1.90;;;15.00;99.90;;;;;;4954132;28;20023;-89
2023/05/24 08:52:33;;;;;;;21.20;2.22;;;15.20;99.90;;;;;;4951088;28;20031;-89
2023/05/24 08:54:59;;;;;;;15.32;2.70;;;15.40;99.90;;;;;;4944819;29;20475;-89
2023/05/24 08:57:30;;;;;;;41.58;4.75;;;15.50;99.90;;;;;;4963197;28;20038;-89
2023/05/24 08:59:56;;;;;;;16.23;2.60;;;15.70;99.90;;;;;;4973542;28;20106;-89
2023/05/24 09:02:22;;;;;;;14.60;2.67;;;15.90;99.90;;;;;;4957212;28;20078;-88
2023/05/24 09:04:49;;;;;;;14.38;2.38;;;16.30;99.90;;;;;;4953979;29;20085;-88
2023/05/24 09:07:19;;;;;;;10.52;1.75;;;16.50;99.90;;;;;;4970759;28;20023;-88
2023/05/24 09:10:08;;;;;;;14.15;2.30;;;16.70;99.90;;;;;;4946307;28;20035;-88
2023/05/24 09:12:36;;;;;;;13.25;2.05;;;16.70;99.90;;;;;;4934701;29;20040;-88
2023/05/24 09:15:03;;;;;;;14.38;2.10;;;16.50;99.90;;;;;;4945669;29;20027;-87
2023/05/24 09:17:30;;;;;;;8.38;1.83;;;16.50;99.90;;;;;;4970745;28;20038;-88
2023/05/24 09:19:57;;;;;;;9.05;2.20;;;16.40;99.90;;;;;;4957488;28;20034;-92
2023/05/24 09:22:26;;;;;;;15.88;2.53;;;16.30;99.90;;;;;;4950435;29;20079;-88
2023/05/24 09:24:56;;;;;;;7.28;1.67;;;16.10;99.90;;;;;;4949837;28;20034;-88
2023/05/24 09:27:22;;;;;;;16.60;2.70;;;15.90;99.90;;;;;;4940059;29;20034;-88
2023/05/24 09:29:50;;;;;;;8.15;1.90;;;15.80;99.90;;;;;;4935526;29;20107;-88
2023/05/24 09:32:17;;;;;;;11.15;1.70;;;15.80;99.90;;;;;;4939828;29;20039;-88
2023/05/24 09:34:43;;;;;;;12.73;1.90;;;15.80;99.90;;;;;;4958883;28;20071;-87
2023/05/24 09:37:16;;;;;;;10.90;1.70;;;15.90;99.90;;;;;;4969321;28;20035;-88
2023/05/24 09:39:43;;;;;;;12.25;1.70;;;16.00;99.90;;;;;;4964546;28;20040;-88
2023/05/24 09:42:15;;;;;;;15.10;2.40;;;16.10;99.90;;;;;;4966604;28;20050;-87
2023/05/24 09:44:41;;;;;;;9.63;1.63;;;16.20;99.90;;;;;;4965474;28;20106;-88
2023/05/24 09:47:08;;;;;;;14.13;2.05;;;16.40;99.90;;;;;;4964668;28;20123;-88
2023/05/24 09:49:36;;;;;;;12.18;2.05;;;16.50;99.90;;;;;;4974145;28;20027;-87
2023/05/24 09:52:02;;;;;;;11.45;1.98;;;16.50;99.90;;;;;;4972472;28;20030;-88
2023/05/24 09:54:27;;;;;;;13.02;2.53;;;16.60;99.90;;;;;;4967225;28;20031;-88
2023/05/24 09:56:53;;;;;;;14.20;2.05;;;16.70;99.90;;;;;;4965164;28;20038;-87
2023/05/24 09:59:19;;;;;;;8.68;1.77;;;16.60;99.90;;;;;;4973276;28;20476;-88
2023/05/24 10:01:45;;;;;;;9.35;1.90;;;16.50;99.90;;;;;;4955722;28;20119;-88
2023/05/24 10:04:12;;;;;;;11.90;2.72;;;16.40;99.90;;;;;;4958161;28;20020;-88
2023/05/24 10:06:41;;;;;;;10.48;1.70;;;16.30;99.90;;;;;;4975885;28;20031;-87
2023/05/24 10:09:08;;;;;;;8.18;1.70;;;16.20;99.90;;;;;;4993335;28;20045;-88
2023/05/24 10:11:38;;;;;;;15.70;2.60;;;16.10;99.90;;;;;;4978911;28;20113;-88
2023/05/24 10:14:08;;;;;;;10.77;1.52;;;16.10;99.90;;;;;;4974484;28;20351;-88
2023/05/24 10:16:36;;;;;;;10.93;1.67;;;16.10;99.90;;;;;;4977856;28;20065;-88
2023/05/24 10:19:02;;;;;;;11.52;2.10;;;16.00;99.90;;;;;;4972149;28;20026;-88
2023/05/24 10:21:31;;;;;;;11.98;1.90;;;16.10;99.90;;;;;;4976020;28;20031;-87
2023/05/24 10:23:58;;;;;;;12.80;2.15;;;16.00;99.90;;;;;;4974966;28;20062;-88
2023/05/24 10:26:28;;;;;;;13.38;1.83;;;16.10;99.90;;;;;;4974935;28;20487;-88
2023/05/24 10:28:57;;;;;;;16.02;2.65;;;16.20;99.90;;;;;;4973729;28;20035;-88
2023/05/24 10:31:28;;;;;;;10.05;1.40;;;16.30;99.90;;;;;;4982696;28;20027;-88
2023/05/24 10:33:57;;;;;;;11.15;1.85;;;16.30;99.90;;;;;;4970248;28;20050;-87
2023/05/24 10:36:24;;;;;;;14.43;2.58;;;16.40;99.90;;;;;;4960718;28;20178;-88
2023/05/24 10:38:50;;;;;;;11.90;2.00;;;16.40;99.90;;;;;;4958954;28;20417;-87
2023/05/24 10:41:17;;;;;;;12.45;2.33;;;16.50;99.90;;;;;;4942607;28;20039;-88
2023/05/24 10:43:45;;;;;;;12.68;1.63;;;16.70;99.90;;;;;;4943395;29;20036;-88
2023/05/24 10:46:15;;;;;;;7.63;1.20;;;16.70;99.90;;;;;;4938861;29;20065;-88
2023/05/24 10:48:41;;;;;;;14.43;1.92;;;16.90;99.90;;;;;;4946736;29;20134;-88
2023/05/24 10:51:31;;;;;;;10.20;1.38;;;17.00;99.60;;;;;;4964523;28;20113;-88
2023/05/24 10:53:57;;;;;;;11.05;1.15;;;17.10;99.20;;;;;;4976962;28;20117;-88
2023/05/24 10:56:26;;;;;;;9.13;1.33;;;17.20;99.00;;;;;;4969367;28;20555;-88
2023/05/24 10:58:56;;;;;;;10.40;1.70;;;17.30;98.30;;;;;;4952532;29;20030;-88
2023/05/24 11:01:33;;;;;;;7.28;1.30;;;17.50;97.60;;;;;;4956083;29;20031;-87
2023/05/24 11:04:11;;;;;;;14.43;2.35;;;17.60;96.70;;;;;;4967864;28;20034;-88
2023/05/24 11:07:00;;;;;;;10.60;1.20;;;17.80;96.50;;;;;;4963452;28;20038;-88
2023/05/24 11:09:27;;;;;;;8.95;1.52;;;18.00;95.30;;;;;;4937735;29;20063;-88
2023/05/24 11:12:00;;;;;;;8.60;1.70;;;17.90;94.30;;;;;;4948139;28;20502;-88
2023/05/24 11:14:28;;;;;;;10.45;1.52;;;17.70;93.80;;;;;;4947067;29;20462;-88
2023/05/24 11:16:54;;;;;;;13.50;1.70;;;17.60;94.70;;;;;;4968222;28;20436;-88
2023/05/24 11:19:32;;;;;;;11.02;2.05;;;17.70;94.70;;;;;;4953350;28;20550;-88
2023/05/24 11:22:00;;;;;;;10.75;1.33;;;17.80;94.70;;;;;;4947105;28;20038;-88
2023/05/24 11:24:26;;;;;;;8.23;1.67;;;17.80;94.50;;;;;;4970253;28;20045;-87
2023/05/24 11:26:52;;;;;;;10.20;1.65;;;17.80;94.60;;;;;;4968425;28;20026;-91
2023/05/24 11:29:21;;;;;;;9.13;1.27;;;18.00;94.10;;;;;;4950752;29;20028;-87
2023/05/24 11:32:06;;;;;;;6.63;1.60;;;18.00;93.80;;;;;;4957829;29;20082;-87
2023/05/24 11:34:32;;;;;;;10.65;1.92;;;18.00;93.90;;;;;;4957695;28;20055;-87
2023/05/24 11:37:04;;;;;;;7.57;1.70;;;18.10;93.30;;;;;;4970645;28;20053;-87
2023/05/24 11:39:31;;;;;;;8.52;1.48;;;18.00;93.00;;;;;;4966489;28;20480;-87
2023/05/24 11:41:57;;;;;;;7.93;1.63;;;18.00;91.70;;;;;;4950258;29;20035;-88
2023/05/24 11:44:24;;;;;;;6.25;1.50;;;18.00;91.80;;;;;;4948605;28;20059;-87
2023/05/24 11:46:57;;;;;;;6.72;1.33;;;18.10;92.10;;;;;;4969976;28;20059;-89
2023/05/24 11:49:22;;;;;;;;;;;18.30;92.50;;;;;;4956090;28;20035;-89
2023/05/24 11:51:47;;;;;;;10.77;1.67;;;18.40;92.30;;;;;;4956423;29;19914;-89
2023/05/24 11:54:13;;;;;;;9.77;1.48;;;18.40;91.80;;;;;;4967651;28;20034;-89
2023/05/24 11:56:38;;;;;;;10.55;1.48;;;18.30;91.70;;;;;;4957393;28;20492;-89
2023/05/24 11:59:24;;;;;;;13.13;1.95;;;18.10;92.10;;;;;;4969926;28;20023;-88
2023/05/24 12:02:10;;;;;;;7.30;1.40;;;18.10;92.30;;;;;;4966593;28;20510;-87
2023/05/24 12:04:36;;;;;;;9.55;2.13;;;18.10;92.50;;;;;;4954987;29;20500;-87
2023/05/24 12:07:02;;;;;;;6.95;1.13;;;18.00;92.50;;;;;;4965198;28;20079;-87
2023/05/24 12:09:28;;;;;;;13.18;2.13;;;18.00;92.70;;;;;;4969753;28;20396;-87
2023/05/24 12:11:54;;;;;;;12.32;1.67;;;17.90;92.60;;;;;;4963034;28;20030;-87
2023/05/24 12:14:27;;;;;;;9.48;2.38;;;17.90;92.70;;;;;;4965726;28;20031;-89
2023/05/24 12:16:57;;;;;;;8.73;2.05;;;17.90;92.10;;;;;;4968153;28;20449;-88
2023/05/24 12:19:25;;;;;;;7.72;2.00;;;17.70;92.20;;;;;;4955533;29;20023;-88
2023/05/24 12:21:55;;;;;;;8.10;1.33;;;17.60;92.60;;;;;;4958849;28;20031;-88
2023/05/24 12:24:23;;;;;;;8.88;1.52;;;17.50;92.70;;;;;;4972068;28;20031;-88
2023/05/24 12:26:49;;;;;;;8.02;1.45;;;17.40;92.70;;;;;;4944195;28;20047;-88
2023/05/24 12:29:16;;;;;;;10.85;1.95;;;17.40;92.80;;;;;;4967587;28;20062;-88
2023/05/24 12:31:43;;;;;;;12.18;1.63;;;17.30;93.00;;;;;;4969511;28;20485;-88
2023/05/24 12:34:14;;;;;;;12.02;3.38;;;17.40;92.90;;;;;;4959121;28;20436;-89
2023/05/24 12:36:41;;;;;;;13.73;2.42;;;17.50;93.00;;;;;;4946416;28;20035;-89
2023/05/24 12:39:17;;;;;;;10.75;1.42;;;17.50;92.80;;;;;;4951815;28;20054;-89
2023/05/24 12:41:43;;;;;;;10.27;1.50;;;17.70;93.80;;;;;;4963475;28;20087;-88
2023/05/24 12:44:12;;;;;;;7.60;1.20;;;18.00;93.40;;;;;;4954603;28;20098;-88
2023/05/24 12:46:40;;;;;;;12.27;1.70;;;18.20;93.10;;;;;;4953881;28;20404;-88